sensor_id;sensor_type;location;lat;lon;timestamp;P1;durP1;ratioP1;P2;durP2;ratioP2
75997;SDS011;64685;48.762;44.822;2023-05-10T00:02:15;2.85;;;1.10;;
75997;SDS011;64685;48.762;44.822;2023-05-10T00:07:18;3.13;;;1.02;;
75997;SDS011;64685;48.762;44.822;2023-05-10T00:12:20;4.07;;;1.27;;
75997;SDS011;64685;48.762;44.822;2023-05-10T00:17:23;3.28;;;0.98;;
75997;SDS011;64685;48.762;44.822;2023-05-10T00:22:25;2.03;;;0.65;;
75997;SDS011;64685;48.762;44.822;2023-05-10T00:27:28;3.15;;;1.00;;
75997;SDS011;64685;48.762;44.822;2023-05-10T00:32:31;6.68;;;0.98;;
75997;SDS011;64685;48.762;44.822;2023-05-10T00:37:33;1.70;;;0.47;;
75997;SDS011;64685;48.762;44.822;2023-05-10T00:42:36;2.25;;;0.70;;
75997;SDS011;64685;48.762;44.822;2023-05-10T00:47:40;3.63;;;0.98;;
75997;SDS011;64685;48.762;44.822;2023-05-10T00:52:43;1.33;;;0.70;;
75997;SDS011;64685;48.762;44.822;2023-05-10T00:57:45;4.60;;;0.63;;
75997;SDS011;64685;48.762;44.822;2023-05-10T01:02:50;3.08;;;0.77;;
75997;SDS011;64685;48.762;44.822;2023-05-10T01:07:52;4.50;;;0.80;;
75997;SDS011;64685;48.762;44.822;2023-05-10T01:12:55;2.03;;;0.70;;
75997;SDS011;64685;48.762;44.822;2023-05-10T01:17:58;2.90;;;0.60;;
75997;SDS011;64685;48.762;44.822;2023-05-10T01:23:10;2.50;;;0.70;;
75997;SDS011;64685;48.762;44.822;2023-05-10T01:34:16;3.47;;;0.70;;
75997;SDS011;64685;48.762;44.822;2023-05-10T01:39:32;2.60;;;0.68;;
75997;SDS011;64685;48.762;44.822;2023-05-10T01:44:56;2.67;;;1.05;;
75997;SDS011;64685;48.762;44.822;2023-05-10T01:50:06;3.72;;;0.70;;
75997;SDS011;64685;48.762;44.822;2023-05-10T01:55:13;1.67;;;0.70;;
75997;SDS011;64685;48.762;44.822;2023-05-10T02:00:18;3.33;;;1.25;;
75997;SDS011;64685;48.762;44.822;2023-05-10T02:05:26;2.28;;;0.80;;
75997;SDS011;64685;48.762;44.822;2023-05-10T02:10:31;1.00;;;0.60;;
75997;SDS011;64685;48.762;44.822;2023-05-10T02:15:36;4.13;;;1.50;;
75997;SDS011;64685;48.762;44.822;2023-05-10T02:20:40;2.45;;;0.70;;
75997;SDS011;64685;48.762;44.822;2023-05-10T02:25:45;6.70;;;0.95;;
75997;SDS011;64685;48.762;44.822;2023-05-10T02:30:49;1.98;;;0.77;;
75997;SDS011;64685;48.762;44.822;2023-05-10T02:35:53;4.68;;;1.15;;
75997;SDS011;64685;48.762;44.822;2023-05-10T02:40:57;4.20;;;0.85;;
75997;SDS011;64685;48.762;44.822;2023-05-10T02:46:01;3.25;;;1.23;;
75997;SDS011;64685;48.762;44.822;2023-05-10T02:51:05;3.10;;;0.80;;
75997;SDS011;64685;48.762;44.822;2023-05-10T03:01:49;2.15;;;0.93;;
75997;SDS011;64685;48.762;44.822;2023-05-10T03:06:52;3.58;;;0.85;;
75997;SDS011;64685;48.762;44.822;2023-05-10T03:17:04;3.58;;;1.40;;
75997;SDS011;64685;48.762;44.822;2023-05-10T03:22:13;2.25;;;1.05;;
75997;SDS011;64685;48.762;44.822;2023-05-10T03:27:23;3.15;;;1.30;;
75997;SDS011;64685;48.762;44.822;2023-05-10T03:32:29;1.70;;;0.80;;
75997;SDS011;64685;48.762;44.822;2023-05-10T03:37:35;4.90;;;1.30;;
75997;SDS011;64685;48.762;44.822;2023-05-10T03:42:38;3.50;;;1.20;;
75997;SDS011;64685;48.762;44.822;2023-05-10T03:47:41;3.72;;;1.02;;
75997;SDS011;64685;48.762;44.822;2023-05-10T03:57:47;3.85;;;1.20;;
75997;SDS011;64685;48.762;44.822;2023-05-10T04:02:51;6.40;;;1.23;;
75997;SDS011;64685;48.762;44.822;2023-05-10T04:07:54;3.75;;;1.08;;
75997;SDS011;64685;48.762;44.822;2023-05-10T04:12:57;3.47;;;1.55;;
75997;SDS011;64685;48.762;44.822;2023-05-10T04:18:00;3.70;;;1.52;;
75997;SDS011;64685;48.762;44.822;2023-05-10T04:23:02;4.75;;;1.20;;
75997;SDS011;64685;48.762;44.822;2023-05-10T04:28:05;5.72;;;1.77;;
75997;SDS011;64685;48.762;44.822;2023-05-10T04:33:08;4.15;;;1.30;;
75997;SDS011;64685;48.762;44.822;2023-05-10T04:38:10;3.33;;;0.88;;
75997;SDS011;64685;48.762;44.822;2023-05-10T04:43:13;7.45;;;1.58;;
75997;SDS011;64685;48.762;44.822;2023-05-10T04:48:15;4.97;;;1.50;;
75997;SDS011;64685;48.762;44.822;2023-05-10T04:53:18;4.47;;;1.55;;
75997;SDS011;64685;48.762;44.822;2023-05-10T04:58:20;8.23;;;2.00;;
75997;SDS011;64685;48.762;44.822;2023-05-10T05:03:23;7.22;;;2.17;;
75997;SDS011;64685;48.762;44.822;2023-05-10T05:08:26;4.95;;;1.90;;
75997;SDS011;64685;48.762;44.822;2023-05-10T05:13:28;4.88;;;1.50;;
75997;SDS011;64685;48.762;44.822;2023-05-10T05:18:31;6.38;;;1.60;;
75997;SDS011;64685;48.762;44.822;2023-05-10T05:23:34;4.47;;;1.50;;
75997;SDS011;64685;48.762;44.822;2023-05-10T05:28:36;9.75;;;3.42;;
75997;SDS011;64685;48.762;44.822;2023-05-10T05:33:40;10.30;;;3.03;;
75997;SDS011;64685;48.762;44.822;2023-05-10T05:38:42;7.20;;;2.10;;
75997;SDS011;64685;48.762;44.822;2023-05-10T05:43:45;8.52;;;2.30;;
75997;SDS011;64685;48.762;44.822;2023-05-10T05:48:47;4.60;;;1.55;;
75997;SDS011;64685;48.762;44.822;2023-05-10T05:53:50;7.00;;;2.00;;
75997;SDS011;64685;48.762;44.822;2023-05-10T05:58:53;6.10;;;1.70;;
75997;SDS011;64685;48.762;44.822;2023-05-10T06:03:56;3.92;;;1.40;;
75997;SDS011;64685;48.762;44.822;2023-05-10T06:08:58;5.90;;;1.52;;
75997;SDS011;64685;48.762;44.822;2023-05-10T06:14:01;6.95;;;1.73;;
75997;SDS011;64685;48.762;44.822;2023-05-10T06:19:05;7.43;;;2.47;;
75997;SDS011;64685;48.762;44.822;2023-05-10T06:24:08;6.82;;;2.28;;
75997;SDS011;64685;48.762;44.822;2023-05-10T06:29:10;6.25;;;2.03;;
75997;SDS011;64685;48.762;44.822;2023-05-10T06:34:13;10.05;;;2.08;;
75997;SDS011;64685;48.762;44.822;2023-05-10T06:39:16;6.35;;;1.65;;
75997;SDS011;64685;48.762;44.822;2023-05-10T06:44:18;5.70;;;1.90;;
75997;SDS011;64685;48.762;44.822;2023-05-10T06:49:21;4.85;;;1.77;;
75997;SDS011;64685;48.762;44.822;2023-05-10T06:54:24;5.32;;;1.58;;
75997;SDS011;64685;48.762;44.822;2023-05-10T06:59:26;4.65;;;1.52;;
75997;SDS011;64685;48.762;44.822;2023-05-10T07:04:29;6.38;;;1.45;;
75997;SDS011;64685;48.762;44.822;2023-05-10T07:09:31;4.78;;;2.08;;
75997;SDS011;64685;48.762;44.822;2023-05-10T07:14:34;6.82;;;2.28;;
75997;SDS011;64685;48.762;44.822;2023-05-10T07:19:36;6.20;;;2.00;;
75997;SDS011;64685;48.762;44.822;2023-05-10T07:24:39;6.43;;;2.00;;
75997;SDS011;64685;48.762;44.822;2023-05-10T07:29:42;6.70;;;1.95;;
75997;SDS011;64685;48.762;44.822;2023-05-10T07:34:44;9.32;;;2.25;;
75997;SDS011;64685;48.762;44.822;2023-05-10T07:39:47;5.80;;;1.85;;
75997;SDS011;64685;48.762;44.822;2023-05-10T07:44:50;9.40;;;1.90;;
75997;SDS011;64685;48.762;44.822;2023-05-10T07:49:53;5.63;;;1.88;;
75997;SDS011;64685;48.762;44.822;2023-05-10T07:54:55;9.65;;;2.70;;
75997;SDS011;64685;48.762;44.822;2023-05-10T07:59:58;9.95;;;4.47;;
75997;SDS011;64685;48.762;44.822;2023-05-10T08:05:01;12.95;;;6.35;;
75997;SDS011;64685;48.762;44.822;2023-05-10T08:10:04;7.32;;;2.80;;
75997;SDS011;64685;48.762;44.822;2023-05-10T08:15:07;11.27;;;2.70;;
75997;SDS011;64685;48.762;44.822;2023-05-10T08:20:10;6.35;;;2.20;;
75997;SDS011;64685;48.762;44.822;2023-05-10T08:25:14;9.15;;;2.55;;
75997;SDS011;64685;48.762;44.822;2023-05-10T08:30:17;7.88;;;3.20;;
75997;SDS011;64685;48.762;44.822;2023-05-10T08:35:20;7.90;;;2.60;;
75997;SDS011;64685;48.762;44.822;2023-05-10T08:40:22;7.85;;;2.63;;
75997;SDS011;64685;48.762;44.822;2023-05-10T08:45:28;8.15;;;2.30;;
75997;SDS011;64685;48.762;44.822;2023-05-10T08:50:39;8.52;;;2.95;;
75997;SDS011;64685;48.762;44.822;2023-05-10T08:55:42;8.75;;;2.80;;
75997;SDS011;64685;48.762;44.822;2023-05-10T09:00:45;8.55;;;2.67;;
75997;SDS011;64685;48.762;44.822;2023-05-10T09:05:49;5.60;;;1.55;;
75997;SDS011;64685;48.762;44.822;2023-05-10T09:10:52;5.20;;;2.05;;
75997;SDS011;64685;48.762;44.822;2023-05-10T09:15:56;5.05;;;1.98;;
75997;SDS011;64685;48.762;44.822;2023-05-10T09:21:14;6.13;;;1.80;;
75997;SDS011;64685;48.762;44.822;2023-05-10T09:26:17;4.03;;;1.77;;
75997;SDS011;64685;48.762;44.822;2023-05-10T09:31:24;4.13;;;1.38;;
75997;SDS011;64685;48.762;44.822;2023-05-10T09:36:50;5.03;;;1.50;;
75997;SDS011;64685;48.762;44.822;2023-05-10T09:41:57;5.47;;;1.80;;
75997;SDS011;64685;48.762;44.822;2023-05-10T09:47:02;4.30;;;1.85;;
75997;SDS011;64685;48.762;44.822;2023-05-10T09:52:08;3.78;;;1.40;;
75997;SDS011;64685;48.762;44.822;2023-05-10T09:57:18;4.93;;;1.80;;
75997;SDS011;64685;48.762;44.822;2023-05-10T10:02:27;4.25;;;1.50;;
75997;SDS011;64685;48.762;44.822;2023-05-10T10:07:31;5.22;;;1.80;;
75997;SDS011;64685;48.762;44.822;2023-05-10T10:12:34;4.88;;;1.42;;
75997;SDS011;64685;48.762;44.822;2023-05-10T10:17:37;4.18;;;1.88;;
75997;SDS011;64685;48.762;44.822;2023-05-10T10:22:41;3.25;;;1.80;;
75997;SDS011;64685;48.762;44.822;2023-05-10T10:39:07;6.20;;;1.88;;
75997;SDS011;64685;48.762;44.822;2023-05-10T10:44:24;6.25;;;2.10;;
75997;SDS011;64685;48.762;44.822;2023-05-10T10:54:41;7.55;;;1.70;;
75997;SDS011;64685;48.762;44.822;2023-05-10T10:59:52;4.90;;;1.70;;
75997;SDS011;64685;48.762;44.822;2023-05-10T11:05:24;5.55;;;1.70;;
75997;SDS011;64685;48.762;44.822;2023-05-10T11:10:53;7.18;;;2.13;;
75997;SDS011;64685;48.762;44.822;2023-05-10T11:16:10;5.25;;;1.58;;
75997;SDS011;64685;48.762;44.822;2023-05-10T11:21:16;5.95;;;1.67;;
75997;SDS011;64685;48.762;44.822;2023-05-10T11:26:18;4.22;;;1.67;;
75997;SDS011;64685;48.762;44.822;2023-05-10T11:31:25;3.88;;;1.63;;
75997;SDS011;64685;48.762;44.822;2023-05-10T11:36:31;3.65;;;1.60;;
75997;SDS011;64685;48.762;44.822;2023-05-10T11:41:35;5.50;;;1.98;;
75997;SDS011;64685;48.762;44.822;2023-05-10T11:46:38;4.40;;;1.42;;
75997;SDS011;64685;48.762;44.822;2023-05-10T11:51:40;6.18;;;1.85;;
75997;SDS011;64685;48.762;44.822;2023-05-10T11:56:45;3.58;;;1.67;;
75997;SDS011;64685;48.762;44.822;2023-05-10T12:01:47;4.80;;;1.60;;
75997;SDS011;64685;48.762;44.822;2023-05-10T12:06:50;6.60;;;1.73;;
75997;SDS011;64685;48.762;44.822;2023-05-10T12:11:55;4.05;;;1.73;;
75997;SDS011;64685;48.762;44.822;2023-05-10T12:16:58;3.85;;;1.63;;
75997;SDS011;64685;48.762;44.822;2023-05-10T12:22:04;6.40;;;1.70;;
75997;SDS011;64685;48.762;44.822;2023-05-10T12:27:07;3.13;;;1.33;;
75997;SDS011;64685;48.762;44.822;2023-05-10T12:32:10;5.47;;;1.80;;
75997;SDS011;64685;48.762;44.822;2023-05-10T12:37:13;3.92;;;1.40;;
75997;SDS011;64685;48.762;44.822;2023-05-10T12:42:16;3.92;;;1.77;;
75997;SDS011;64685;48.762;44.822;2023-05-10T12:47:18;4.43;;;1.50;;
75997;SDS011;64685;48.762;44.822;2023-05-10T12:52:21;6.57;;;2.10;;
75997;SDS011;64685;48.762;44.822;2023-05-10T12:57:24;6.35;;;2.42;;
75997;SDS011;64685;48.762;44.822;2023-05-10T13:02:26;7.50;;;2.30;;
75997;SDS011;64685;48.762;44.822;2023-05-10T13:07:29;7.40;;;3.40;;
75997;SDS011;64685;48.762;44.822;2023-05-10T13:12:32;6.63;;;3.20;;
75997;SDS011;64685;48.762;44.822;2023-05-10T13:17:35;5.43;;;2.30;;
75997;SDS011;64685;48.762;44.822;2023-05-10T13:22:37;6.53;;;1.80;;
75997;SDS011;64685;48.762;44.822;2023-05-10T13:27:41;5.22;;;1.55;;
75997;SDS011;64685;48.762;44.822;2023-05-10T13:32:44;4.20;;;1.40;;
75997;SDS011;64685;48.762;44.822;2023-05-10T13:37:47;5.43;;;1.58;;
75997;SDS011;64685;48.762;44.822;2023-05-10T13:42:51;4.32;;;1.58;;
75997;SDS011;64685;48.762;44.822;2023-05-10T13:47:55;4.63;;;1.40;;
75997;SDS011;64685;48.762;44.822;2023-05-10T13:52:57;4.22;;;1.50;;
75997;SDS011;64685;48.762;44.822;2023-05-10T13:58:00;4.53;;;1.48;;
75997;SDS011;64685;48.762;44.822;2023-05-10T14:03:02;6.28;;;1.90;;
75997;SDS011;64685;48.762;44.822;2023-05-10T14:08:07;6.95;;;1.73;;
75997;SDS011;64685;48.762;44.822;2023-05-10T14:13:11;7.90;;;1.92;;
75997;SDS011;64685;48.762;44.822;2023-05-10T14:18:14;4.80;;;1.65;;
75997;SDS011;64685;48.762;44.822;2023-05-10T14:23:16;5.53;;;1.83;;
75997;SDS011;64685;48.762;44.822;2023-05-10T14:28:19;4.55;;;1.65;;
75997;SDS011;64685;48.762;44.822;2023-05-10T14:33:22;3.22;;;1.58;;
75997;SDS011;64685;48.762;44.822;2023-05-10T14:38:25;7.20;;;1.63;;
75997;SDS011;64685;48.762;44.822;2023-05-10T14:43:28;5.72;;;2.13;;
75997;SDS011;64685;48.762;44.822;2023-05-10T14:48:31;7.45;;;2.45;;
75997;SDS011;64685;48.762;44.822;2023-05-10T14:53:33;10.68;;;2.90;;
75997;SDS011;64685;48.762;44.822;2023-05-10T14:58:36;5.85;;;2.60;;
75997;SDS011;64685;48.762;44.822;2023-05-10T15:03:39;9.60;;;2.90;;
75997;SDS011;64685;48.762;44.822;2023-05-10T15:08:43;6.93;;;2.42;;
75997;SDS011;64685;48.762;44.822;2023-05-10T15:13:45;6.25;;;2.50;;
75997;SDS011;64685;48.762;44.822;2023-05-10T15:18:49;7.28;;;2.17;;
75997;SDS011;64685;48.762;44.822;2023-05-10T15:23:52;5.30;;;2.25;;
75997;SDS011;64685;48.762;44.822;2023-05-10T15:28:55;7.07;;;3.63;;
75997;SDS011;64685;48.762;44.822;2023-05-10T15:33:58;4.97;;;1.98;;
75997;SDS011;64685;48.762;44.822;2023-05-10T15:39:03;5.80;;;2.83;;
75997;SDS011;64685;48.762;44.822;2023-05-10T15:44:05;7.55;;;2.72;;
75997;SDS011;64685;48.762;44.822;2023-05-10T15:49:08;5.32;;;2.40;;
75997;SDS011;64685;48.762;44.822;2023-05-10T15:54:11;5.10;;;2.00;;
75997;SDS011;64685;48.762;44.822;2023-05-10T15:59:13;6.13;;;2.13;;
75997;SDS011;64685;48.762;44.822;2023-05-10T16:04:16;7.43;;;2.63;;
75997;SDS011;64685;48.762;44.822;2023-05-10T16:09:19;4.95;;;2.10;;
75997;SDS011;64685;48.762;44.822;2023-05-10T16:14:22;7.85;;;2.72;;
75997;SDS011;64685;48.762;44.822;2023-05-10T16:19:25;4.60;;;2.00;;
75997;SDS011;64685;48.762;44.822;2023-05-10T16:24:30;8.10;;;2.90;;
75997;SDS011;64685;48.762;44.822;2023-05-10T16:29:33;5.90;;;2.13;;
75997;SDS011;64685;48.762;44.822;2023-05-10T16:34:36;7.25;;;2.70;;
75997;SDS011;64685;48.762;44.822;2023-05-10T16:39:38;9.02;;;3.22;;
75997;SDS011;64685;48.762;44.822;2023-05-10T16:44:41;7.93;;;3.30;;
75997;SDS011;64685;48.762;44.822;2023-05-10T16:49:43;6.45;;;2.72;;
75997;SDS011;64685;48.762;44.822;2023-05-10T16:54:46;5.22;;;2.55;;
75997;SDS011;64685;48.762;44.822;2023-05-10T16:59:49;10.40;;;3.15;;
75997;SDS011;64685;48.762;44.822;2023-05-10T17:04:54;7.72;;;3.42;;
75997;SDS011;64685;48.762;44.822;2023-05-10T17:09:57;7.25;;;3.45;;
75997;SDS011;64685;48.762;44.822;2023-05-10T17:15:00;10.52;;;4.07;;
75997;SDS011;64685;48.762;44.822;2023-05-10T17:20:06;8.65;;;3.58;;
75997;SDS011;64685;48.762;44.822;2023-05-10T17:25:09;9.90;;;3.63;;
75997;SDS011;64685;48.762;44.822;2023-05-10T17:30:12;8.32;;;4.32;;
75997;SDS011;64685;48.762;44.822;2023-05-10T17:35:15;8.27;;;3.65;;
75997;SDS011;64685;48.762;44.822;2023-05-10T17:40:18;7.88;;;3.25;;
75997;SDS011;64685;48.762;44.822;2023-05-10T17:45:21;9.63;;;4.07;;
75997;SDS011;64685;48.762;44.822;2023-05-10T17:50:24;10.15;;;3.92;;
75997;SDS011;64685;48.762;44.822;2023-05-10T17:55:27;8.82;;;3.83;;
75997;SDS011;64685;48.762;44.822;2023-05-10T18:00:31;9.48;;;4.35;;
75997;SDS011;64685;48.762;44.822;2023-05-10T18:05:34;9.38;;;3.92;;
75997;SDS011;64685;48.762;44.822;2023-05-10T18:10:38;10.02;;;4.40;;
75997;SDS011;64685;48.762;44.822;2023-05-10T18:15:42;9.93;;;4.60;;
75997;SDS011;64685;48.762;44.822;2023-05-10T18:20:45;8.73;;;4.53;;
75997;SDS011;64685;48.762;44.822;2023-05-10T18:25:47;10.73;;;5.70;;
75997;SDS011;64685;48.762;44.822;2023-05-10T18:30:50;10.20;;;4.18;;
75997;SDS011;64685;48.762;44.822;2023-05-10T18:35:53;9.55;;;3.60;;
75997;SDS011;64685;48.762;44.822;2023-05-10T18:40:55;10.27;;;3.70;;
75997;SDS011;64685;48.762;44.822;2023-05-10T18:45:58;10.13;;;4.25;;
75997;SDS011;64685;48.762;44.822;2023-05-10T18:51:01;11.00;;;4.50;;
75997;SDS011;64685;48.762;44.822;2023-05-10T18:56:04;10.63;;;4.13;;
75997;SDS011;64685;48.762;44.822;2023-05-10T19:01:08;12.25;;;5.53;;
75997;SDS011;64685;48.762;44.822;2023-05-10T19:06:10;12.65;;;4.95;;
75997;SDS011;64685;48.762;44.822;2023-05-10T19:11:13;12.73;;;4.15;;
75997;SDS011;64685;48.762;44.822;2023-05-10T19:16:16;11.15;;;4.38;;
75997;SDS011;64685;48.762;44.822;2023-05-10T19:21:23;13.05;;;5.50;;
75997;SDS011;64685;48.762;44.822;2023-05-10T19:26:26;12.23;;;4.97;;
75997;SDS011;64685;48.762;44.822;2023-05-10T19:31:29;11.63;;;4.22;;
75997;SDS011;64685;48.762;44.822;2023-05-10T19:36:32;9.13;;;4.03;;
75997;SDS011;64685;48.762;44.822;2023-05-10T19:41:35;12.55;;;3.67;;
75997;SDS011;64685;48.762;44.822;2023-05-10T19:46:38;7.53;;;3.33;;
75997;SDS011;64685;48.762;44.822;2023-05-10T19:51:41;5.95;;;1.92;;
75997;SDS011;64685;48.762;44.822;2023-05-10T19:56:43;4.53;;;1.58;;
75997;SDS011;64685;48.762;44.822;2023-05-10T20:01:46;4.97;;;1.70;;
75997;SDS011;64685;48.762;44.822;2023-05-10T20:06:48;5.65;;;2.15;;
75997;SDS011;64685;48.762;44.822;2023-05-10T20:11:51;6.18;;;1.58;;
75997;SDS011;64685;48.762;44.822;2023-05-10T20:16:53;5.60;;;1.83;;
75997;SDS011;64685;48.762;44.822;2023-05-10T20:21:56;6.53;;;2.35;;
75997;SDS011;64685;48.762;44.822;2023-05-10T20:26:59;5.68;;;2.45;;
75997;SDS011;64685;48.762;44.822;2023-05-10T20:32:03;6.38;;;2.38;;
75997;SDS011;64685;48.762;44.822;2023-05-10T20:37:06;5.85;;;2.45;;
75997;SDS011;64685;48.762;44.822;2023-05-10T20:42:09;7.00;;;2.45;;
75997;SDS011;64685;48.762;44.822;2023-05-10T20:47:13;8.10;;;2.30;;
75997;SDS011;64685;48.762;44.822;2023-05-10T20:57:18;6.57;;;2.15;;
75997;SDS011;64685;48.762;44.822;2023-05-10T21:02:21;7.53;;;2.55;;
75997;SDS011;64685;48.762;44.822;2023-05-10T21:07:23;7.00;;;2.22;;
75997;SDS011;64685;48.762;44.822;2023-05-10T21:12:26;5.07;;;1.65;;
75997;SDS011;64685;48.762;44.822;2023-05-10T21:17:29;6.18;;;2.25;;
75997;SDS011;64685;48.762;44.822;2023-05-10T21:22:31;8.50;;;2.78;;
75997;SDS011;64685;48.762;44.822;2023-05-10T21:27:34;5.53;;;2.30;;
75997;SDS011;64685;48.762;44.822;2023-05-10T21:32:36;7.35;;;2.60;;
75997;SDS011;64685;48.762;44.822;2023-05-10T21:37:39;8.18;;;2.70;;
75997;SDS011;64685;48.762;44.822;2023-05-10T21:42:41;5.72;;;2.75;;
75997;SDS011;64685;48.762;44.822;2023-05-10T21:47:44;6.40;;;2.53;;
75997;SDS011;64685;48.762;44.822;2023-05-10T21:52:46;9.55;;;3.85;;
75997;SDS011;64685;48.762;44.822;2023-05-10T21:57:49;10.27;;;4.63;;
75997;SDS011;64685;48.762;44.822;2023-05-10T22:02:52;8.80;;;3.70;;
75997;SDS011;64685;48.762;44.822;2023-05-10T22:07:54;9.48;;;4.03;;
75997;SDS011;64685;48.762;44.822;2023-05-10T22:12:57;11.07;;;4.70;;
75997;SDS011;64685;48.762;44.822;2023-05-10T22:18:01;8.27;;;3.30;;
75997;SDS011;64685;48.762;44.822;2023-05-10T22:23:03;11.32;;;4.47;;
75997;SDS011;64685;48.762;44.822;2023-05-10T22:28:06;8.13;;;3.22;;
75997;SDS011;64685;48.762;44.822;2023-05-10T22:33:10;7.95;;;2.90;;
75997;SDS011;64685;48.762;44.822;2023-05-10T22:38:13;8.35;;;3.20;;
75997;SDS011;64685;48.762;44.822;2023-05-10T22:43:16;8.18;;;3.28;;
75997;SDS011;64685;48.762;44.822;2023-05-10T22:48:19;9.15;;;3.72;;
75997;SDS011;64685;48.762;44.822;2023-05-10T22:53:22;12.13;;;4.70;;
75997;SDS011;64685;48.762;44.822;2023-05-10T22:58:24;9.20;;;3.88;;
75997;SDS011;64685;48.762;44.822;2023-05-10T23:03:27;11.27;;;4.30;;
75997;SDS011;64685;48.762;44.822;2023-05-10T23:08:31;12.05;;;4.47;;
75997;SDS011;64685;48.762;44.822;2023-05-10T23:13:33;10.68;;;4.15;;
75997;SDS011;64685;48.762;44.822;2023-05-10T23:18:36;10.50;;;3.95;;
75997;SDS011;64685;48.762;44.822;2023-05-10T23:23:38;10.15;;;4.05;;
75997;SDS011;64685;48.762;44.822;2023-05-10T23:28:41;9.85;;;3.95;;
75997;SDS011;64685;48.762;44.822;2023-05-10T23:33:44;8.75;;;2.72;;
75997;SDS011;64685;48.762;44.822;2023-05-10T23:38:47;7.32;;;2.78;;
75997;SDS011;64685;48.762;44.822;2023-05-10T23:43:50;8.20;;;2.65;;
75997;SDS011;64685;48.762;44.822;2023-05-10T23:48:52;4.20;;;1.80;;
75997;SDS011;64685;48.762;44.822;2023-05-10T23:53:55;5.65;;;1.75;;
75997;SDS011;64685;48.762;44.822;2023-05-10T23:58:57;5.35;;;1.73;;
